sensor_id;sensor_type;location;lat;lon;timestamp;temperature;humidity
680;DHT22;322;48.846;9.230;2023-03-01T00:01:27;0.00;99.90
680;DHT22;322;48.846;9.230;2023-03-01T00:03:55;0.00;99.90
680;DHT22;322;48.846;9.230;2023-03-01T00:06:23;0.00;99.90
680;DHT22;322;48.846;9.230;2023-03-01T00:08:50;-0.10;99.90
680;DHT22;322;48.846;9.230;2023-03-01T00:11:19;-0.10;99.90
680;DHT22;322;48.846;9.230;2023-03-01T00:13:49;-0.20;99.90
680;DHT22;322;48.846;9.230;2023-03-01T00:16:19;-0.20;99.90
680;DHT22;322;48.846;9.230;2023-03-01T00:18:46;-0.20;99.90
680;DHT22;322;48.846;9.230;2023-03-01T00:21:13;-0.30;99.90
680;DHT22;322;48.846;9.230;2023-03-01T00:23:40;-0.30;99.90
680;DHT22;322;48.846;9.230;2023-03-01T00:26:09;-0.30;99.90
680;DHT22;322;48.846;9.230;2023-03-01T00:28:36;-0.30;99.90
680;DHT22;322;48.846;9.230;2023-03-01T00:31:06;-0.40;99.90
680;DHT22;322;48.846;9.230;2023-03-01T00:33:33;-0.50;99.90
680;DHT22;322;48.846;9.230;2023-03-01T00:36:00;-0.60;99.90
680;DHT22;322;48.846;9.230;2023-03-01T00:38:27;-0.80;99.90
680;DHT22;322;48.846;9.230;2023-03-01T00:40:54;-0.80;99.90
680;DHT22;322;48.846;9.230;2023-03-01T00:43:21;-0.90;99.90
680;DHT22;322;48.846;9.230;2023-03-01T00:45:48;-0.90;99.90
680;DHT22;322;48.846;9.230;2023-03-01T00:48:16;-1.00;99.90
680;DHT22;322;48.846;9.230;2023-03-01T00:50:43;-1.00;99.90
680;DHT22;322;48.846;9.230;2023-03-01T00:53:09;-1.10;99.90
680;DHT22;322;48.846;9.230;2023-03-01T00:55:36;-1.10;99.90
680;DHT22;322;48.846;9.230;2023-03-01T00:58:03;-1.00;99.90
680;DHT22;322;48.846;9.230;2023-03-01T01:00:30;-0.90;99.90
680;DHT22;322;48.846;9.230;2023-03-01T01:02:56;-0.70;99.90
680;DHT22;322;48.846;9.230;2023-03-01T01:05:24;-0.60;99.90
680;DHT22;322;48.846;9.230;2023-03-01T01:07:51;-0.50;99.90
680;DHT22;322;48.846;9.230;2023-03-01T01:10:18;-0.50;99.90
680;DHT22;322;48.846;9.230;2023-03-01T01:12:45;-0.50;99.90
680;DHT22;322;48.846;9.230;2023-03-01T01:15:12;-0.40;99.90
680;DHT22;322;48.846;9.230;2023-03-01T01:17:42;-0.40;99.90
680;DHT22;322;48.846;9.230;2023-03-01T01:20:10;-0.50;99.90
680;DHT22;322;48.846;9.230;2023-03-01T01:22:38;-0.50;99.90
680;DHT22;322;48.846;9.230;2023-03-01T01:25:05;-0.60;99.90
680;DHT22;322;48.846;9.230;2023-03-01T01:27:32;-0.60;99.90
680;DHT22;322;48.846;9.230;2023-03-01T01:29:59;-0.70;99.90
680;DHT22;322;48.846;9.230;2023-03-01T01:32:26;-0.80;99.90
680;DHT22;322;48.846;9.230;2023-03-01T01:34:53;-0.80;99.90
680;DHT22;322;48.846;9.230;2023-03-01T01:37:20;-0.90;99.90
680;DHT22;322;48.846;9.230;2023-03-01T01:39:48;-0.90;99.90
680;DHT22;322;48.846;9.230;2023-03-01T01:42:17;-0.90;99.90
680;DHT22;322;48.846;9.230;2023-03-01T01:44:46;-0.80;99.90
680;DHT22;322;48.846;9.230;2023-03-01T01:47:15;-0.70;99.90
680;DHT22;322;48.846;9.230;2023-03-01T01:49:46;-0.60;99.90
680;DHT22;322;48.846;9.230;2023-03-01T01:52:16;-0.60;99.90
680;DHT22;322;48.846;9.230;2023-03-01T01:54:51;-0.60;99.90
680;DHT22;322;48.846;9.230;2023-03-01T01:57:23;-0.50;99.90
680;DHT22;322;48.846;9.230;2023-03-01T01:59:54;-0.50;99.90
680;DHT22;322;48.846;9.230;2023-03-01T02:02:24;-0.50;99.90
680;DHT22;322;48.846;9.230;2023-03-01T02:04:55;-0.50;99.90
680;DHT22;322;48.846;9.230;2023-03-01T02:07:25;-0.50;99.90
680;DHT22;322;48.846;9.230;2023-03-01T02:09:53;-0.40;99.90
680;DHT22;322;48.846;9.230;2023-03-01T02:12:23;-0.40;99.90
680;DHT22;322;48.846;9.230;2023-03-01T02:14:50;-0.30;99.90
680;DHT22;322;48.846;9.230;2023-03-01T02:17:18;-0.20;99.90
680;DHT22;322;48.846;9.230;2023-03-01T02:19:57;-0.20;99.90
680;DHT22;322;48.846;9.230;2023-03-01T02:22:30;-0.20;99.90
680;DHT22;322;48.846;9.230;2023-03-01T02:25:06;-0.10;99.90
680;DHT22;322;48.846;9.230;2023-03-01T02:27:41;-0.10;99.90
680;DHT22;322;48.846;9.230;2023-03-01T02:30:12;0.00;99.90
680;DHT22;322;48.846;9.230;2023-03-01T02:32:40;0.10;99.90
680;DHT22;322;48.846;9.230;2023-03-01T02:35:09;0.10;99.90
680;DHT22;322;48.846;9.230;2023-03-01T02:37:36;0.20;99.90
680;DHT22;322;48.846;9.230;2023-03-01T02:40:07;0.20;99.90
680;DHT22;322;48.846;9.230;2023-03-01T02:42:42;0.20;99.90
680;DHT22;322;48.846;9.230;2023-03-01T02:45:12;0.20;99.90
680;DHT22;322;48.846;9.230;2023-03-01T02:47:39;0.20;99.90
680;DHT22;322;48.846;9.230;2023-03-01T02:50:15;0.20;99.90
680;DHT22;322;48.846;9.230;2023-03-01T02:52:46;0.30;99.90
680;DHT22;322;48.846;9.230;2023-03-01T02:55:16;0.40;99.90
680;DHT22;322;48.846;9.230;2023-03-01T02:57:45;0.40;99.90
680;DHT22;322;48.846;9.230;2023-03-01T03:00:19;0.50;99.90
680;DHT22;322;48.846;9.230;2023-03-01T03:02:47;0.50;99.90
680;DHT22;322;48.846;9.230;2023-03-01T03:05:16;0.60;99.90
680;DHT22;322;48.846;9.230;2023-03-01T03:07:44;0.60;99.90
680;DHT22;322;48.846;9.230;2023-03-01T03:10:14;0.70;99.90
680;DHT22;322;48.846;9.230;2023-03-01T03:12:42;0.70;99.90
680;DHT22;322;48.846;9.230;2023-03-01T03:15:09;0.80;99.90
680;DHT22;322;48.846;9.230;2023-03-01T03:17:40;0.80;99.90
680;DHT22;322;48.846;9.230;2023-03-01T03:20:10;0.90;99.90
680;DHT22;322;48.846;9.230;2023-03-01T03:22:38;0.90;99.90
680;DHT22;322;48.846;9.230;2023-03-01T03:25:06;0.90;99.90
680;DHT22;322;48.846;9.230;2023-03-01T03:27:36;0.80;99.90
680;DHT22;322;48.846;9.230;2023-03-01T03:30:04;0.80;99.90
680;DHT22;322;48.846;9.230;2023-03-01T03:32:34;0.80;99.90
680;DHT22;322;48.846;9.230;2023-03-01T03:35:02;0.80;99.90
680;DHT22;322;48.846;9.230;2023-03-01T03:37:34;0.80;99.90
680;DHT22;322;48.846;9.230;2023-03-01T03:40:19;0.80;99.90
680;DHT22;322;48.846;9.230;2023-03-01T03:42:45;0.80;99.90
680;DHT22;322;48.846;9.230;2023-03-01T03:45:13;0.80;99.90
680;DHT22;322;48.846;9.230;2023-03-01T03:47:41;0.90;99.90
680;DHT22;322;48.846;9.230;2023-03-01T03:50:10;1.00;99.90
680;DHT22;322;48.846;9.230;2023-03-01T03:52:37;1.10;99.90
680;DHT22;322;48.846;9.230;2023-03-01T03:55:05;1.10;99.90
680;DHT22;322;48.846;9.230;2023-03-01T03:57:36;1.10;99.90
680;DHT22;322;48.846;9.230;2023-03-01T04:00:04;1.10;99.90
680;DHT22;322;48.846;9.230;2023-03-01T04:02:38;1.20;99.90
680;DHT22;322;48.846;9.230;2023-03-01T04:05:05;1.20;99.90
680;DHT22;322;48.846;9.230;2023-03-01T04:07:34;1.20;99.90
680;DHT22;322;48.846;9.230;2023-03-01T04:10:02;1.10;99.90
680;DHT22;322;48.846;9.230;2023-03-01T04:12:28;1.20;99.90
680;DHT22;322;48.846;9.230;2023-03-01T04:14:55;1.20;99.90
680;DHT22;322;48.846;9.230;2023-03-01T04:17:22;1.20;99.90
680;DHT22;322;48.846;9.230;2023-03-01T04:19:49;1.30;99.90
680;DHT22;322;48.846;9.230;2023-03-01T04:22:15;1.40;99.90
680;DHT22;322;48.846;9.230;2023-03-01T04:24:44;1.40;99.90
680;DHT22;322;48.846;9.230;2023-03-01T04:27:11;1.40;99.90
680;DHT22;322;48.846;9.230;2023-03-01T04:29:38;1.40;99.90
680;DHT22;322;48.846;9.230;2023-03-01T04:32:04;1.40;99.90
680;DHT22;322;48.846;9.230;2023-03-01T04:34:31;1.30;99.90
680;DHT22;322;48.846;9.230;2023-03-01T04:36:58;1.30;99.90
680;DHT22;322;48.846;9.230;2023-03-01T04:39:25;1.40;99.90
680;DHT22;322;48.846;9.230;2023-03-01T04:41:53;1.40;99.90
680;DHT22;322;48.846;9.230;2023-03-01T04:44:20;1.40;99.90
680;DHT22;322;48.846;9.230;2023-03-01T04:46:48;1.40;99.90
680;DHT22;322;48.846;9.230;2023-03-01T04:49:15;1.50;99.90
680;DHT22;322;48.846;9.230;2023-03-01T04:51:42;1.50;99.90
680;DHT22;322;48.846;9.230;2023-03-01T04:54:09;1.40;99.90
680;DHT22;322;48.846;9.230;2023-03-01T04:56:36;1.30;99.90
680;DHT22;322;48.846;9.230;2023-03-01T04:59:04;1.30;99.90
680;DHT22;322;48.846;9.230;2023-03-01T05:01:31;1.20;99.90
680;DHT22;322;48.846;9.230;2023-03-01T05:03:58;1.20;99.90
680;DHT22;322;48.846;9.230;2023-03-01T05:06:28;1.10;99.90
680;DHT22;322;48.846;9.230;2023-03-01T05:08:55;1.20;99.90
680;DHT22;322;48.846;9.230;2023-03-01T05:11:22;1.30;99.90
680;DHT22;322;48.846;9.230;2023-03-01T05:13:49;1.30;99.90
680;DHT22;322;48.846;9.230;2023-03-01T05:16:21;1.30;99.90
680;DHT22;322;48.846;9.230;2023-03-01T05:18:48;1.40;99.90
680;DHT22;322;48.846;9.230;2023-03-01T05:21:15;1.40;99.90
680;DHT22;322;48.846;9.230;2023-03-01T05:23:43;1.40;99.90
680;DHT22;322;48.846;9.230;2023-03-01T05:26:10;1.40;99.90
680;DHT22;322;48.846;9.230;2023-03-01T05:28:38;1.30;99.90
680;DHT22;322;48.846;9.230;2023-03-01T05:31:05;1.20;99.90
680;DHT22;322;48.846;9.230;2023-03-01T05:33:36;1.20;99.90
680;DHT22;322;48.846;9.230;2023-03-01T05:36:04;1.10;99.90
680;DHT22;322;48.846;9.230;2023-03-01T05:38:31;1.10;99.90
680;DHT22;322;48.846;9.230;2023-03-01T05:40:58;1.10;99.90
680;DHT22;322;48.846;9.230;2023-03-01T05:43:25;1.20;99.90
680;DHT22;322;48.846;9.230;2023-03-01T05:45:52;1.20;99.90
680;DHT22;322;48.846;9.230;2023-03-01T05:48:18;1.10;99.90
680;DHT22;322;48.846;9.230;2023-03-01T05:50:47;1.20;99.90
680;DHT22;322;48.846;9.230;2023-03-01T05:53:16;1.30;99.90
680;DHT22;322;48.846;9.230;2023-03-01T05:55:44;1.20;99.90
680;DHT22;322;48.846;9.230;2023-03-01T05:58:14;1.20;99.90
680;DHT22;322;48.846;9.230;2023-03-01T06:00:41;1.30;99.90
680;DHT22;322;48.846;9.230;2023-03-01T06:03:10;1.30;99.90
680;DHT22;322;48.846;9.230;2023-03-01T06:05:37;1.30;99.90
680;DHT22;322;48.846;9.230;2023-03-01T06:08:07;1.20;99.90
680;DHT22;322;48.846;9.230;2023-03-01T06:10:34;1.20;99.90
680;DHT22;322;48.846;9.230;2023-03-01T06:13:00;1.20;99.90
680;DHT22;322;48.846;9.230;2023-03-01T06:15:27;1.10;99.90
680;DHT22;322;48.846;9.230;2023-03-01T06:17:55;1.10;99.90
680;DHT22;322;48.846;9.230;2023-03-01T06:20:24;1.00;99.90
680;DHT22;322;48.846;9.230;2023-03-01T06:22:52;0.90;99.90
680;DHT22;322;48.846;9.230;2023-03-01T06:25:22;0.90;99.90
680;DHT22;322;48.846;9.230;2023-03-01T06:27:49;0.80;99.90
680;DHT22;322;48.846;9.230;2023-03-01T06:30:19;0.70;99.90
680;DHT22;322;48.846;9.230;2023-03-01T06:32:46;0.70;99.90
680;DHT22;322;48.846;9.230;2023-03-01T06:35:15;0.60;99.90
680;DHT22;322;48.846;9.230;2023-03-01T06:37:43;0.50;99.90
680;DHT22;322;48.846;9.230;2023-03-01T06:40:10;0.50;99.90
680;DHT22;322;48.846;9.230;2023-03-01T06:42:43;0.40;99.90
680;DHT22;322;48.846;9.230;2023-03-01T06:45:11;0.40;99.90
680;DHT22;322;48.846;9.230;2023-03-01T06:47:38;0.40;99.90
680;DHT22;322;48.846;9.230;2023-03-01T06:50:05;0.50;99.90
680;DHT22;322;48.846;9.230;2023-03-01T06:52:32;0.50;99.90
680;DHT22;322;48.846;9.230;2023-03-01T06:54:59;0.50;99.90
680;DHT22;322;48.846;9.230;2023-03-01T06:57:26;0.60;99.90
680;DHT22;322;48.846;9.230;2023-03-01T06:59:54;0.60;99.90
680;DHT22;322;48.846;9.230;2023-03-01T07:02:21;0.60;99.90
680;DHT22;322;48.846;9.230;2023-03-01T07:04:49;0.70;99.90
680;DHT22;322;48.846;9.230;2023-03-01T07:07:16;0.70;99.90
680;DHT22;322;48.846;9.230;2023-03-01T07:09:43;0.60;99.90
680;DHT22;322;48.846;9.230;2023-03-01T07:12:10;0.70;99.90
680;DHT22;322;48.846;9.230;2023-03-01T07:14:37;0.60;99.90
680;DHT22;322;48.846;9.230;2023-03-01T07:17:05;0.60;99.90
680;DHT22;322;48.846;9.230;2023-03-01T07:19:32;0.60;99.90
680;DHT22;322;48.846;9.230;2023-03-01T07:21:59;0.70;99.90
680;DHT22;322;48.846;9.230;2023-03-01T07:24:26;0.70;99.90
680;DHT22;322;48.846;9.230;2023-03-01T07:26:52;0.70;99.90
680;DHT22;322;48.846;9.230;2023-03-01T07:29:20;0.80;99.90
680;DHT22;322;48.846;9.230;2023-03-01T07:31:46;0.90;99.90
680;DHT22;322;48.846;9.230;2023-03-01T07:34:15;1.00;99.90
680;DHT22;322;48.846;9.230;2023-03-01T07:36:41;1.00;99.90
680;DHT22;322;48.846;9.230;2023-03-01T07:39:10;1.00;99.90
680;DHT22;322;48.846;9.230;2023-03-01T07:41:37;1.10;99.90
680;DHT22;322;48.846;9.230;2023-03-01T07:44:05;1.10;99.90
680;DHT22;322;48.846;9.230;2023-03-01T07:46:32;1.10;99.90
680;DHT22;322;48.846;9.230;2023-03-01T07:48:58;1.20;99.90
680;DHT22;322;48.846;9.230;2023-03-01T07:51:27;1.30;99.90
680;DHT22;322;48.846;9.230;2023-03-01T07:53:54;1.30;99.90
680;DHT22;322;48.846;9.230;2023-03-01T07:56:20;1.40;99.90
680;DHT22;322;48.846;9.230;2023-03-01T07:58:47;1.50;99.90
680;DHT22;322;48.846;9.230;2023-03-01T08:01:15;1.50;99.90
680;DHT22;322;48.846;9.230;2023-03-01T08:03:42;1.60;99.90
680;DHT22;322;48.846;9.230;2023-03-01T08:06:11;1.60;99.90
680;DHT22;322;48.846;9.230;2023-03-01T08:08:39;1.60;99.90
680;DHT22;322;48.846;9.230;2023-03-01T08:11:08;1.70;99.90
680;DHT22;322;48.846;9.230;2023-03-01T08:13:36;1.70;99.90
680;DHT22;322;48.846;9.230;2023-03-01T08:16:04;1.80;99.90
680;DHT22;322;48.846;9.230;2023-03-01T08:18:31;1.80;99.90
680;DHT22;322;48.846;9.230;2023-03-01T08:21:02;1.90;99.90
680;DHT22;322;48.846;9.230;2023-03-01T08:23:29;2.00;99.90
680;DHT22;322;48.846;9.230;2023-03-01T08:26:05;2.00;99.90
680;DHT22;322;48.846;9.230;2023-03-01T08:28:32;2.10;99.90
680;DHT22;322;48.846;9.230;2023-03-01T08:30:59;2.00;99.90
680;DHT22;322;48.846;9.230;2023-03-01T08:33:26;2.20;99.90
680;DHT22;322;48.846;9.230;2023-03-01T08:36:01;2.40;99.90
680;DHT22;322;48.846;9.230;2023-03-01T08:38:27;2.50;99.90
680;DHT22;322;48.846;9.230;2023-03-01T08:40:54;2.60;99.90
680;DHT22;322;48.846;9.230;2023-03-01T08:43:22;2.50;99.90
680;DHT22;322;48.846;9.230;2023-03-01T08:45:50;2.50;99.90
680;DHT22;322;48.846;9.230;2023-03-01T08:48:16;2.60;99.90
680;DHT22;322;48.846;9.230;2023-03-01T08:50:43;2.70;99.90
680;DHT22;322;48.846;9.230;2023-03-01T08:53:10;2.70;99.90
680;DHT22;322;48.846;9.230;2023-03-01T08:55:37;2.80;99.90
680;DHT22;322;48.846;9.230;2023-03-01T08:58:03;2.80;99.90
680;DHT22;322;48.846;9.230;2023-03-01T09:00:32;3.00;99.90
680;DHT22;322;48.846;9.230;2023-03-01T09:03:00;3.20;99.90
680;DHT22;322;48.846;9.230;2023-03-01T09:05:26;3.30;99.90
680;DHT22;322;48.846;9.230;2023-03-01T09:07:53;3.40;99.90
680;DHT22;322;48.846;9.230;2023-03-01T09:10:20;3.40;99.90
680;DHT22;322;48.846;9.230;2023-03-01T09:12:47;3.50;99.90
680;DHT22;322;48.846;9.230;2023-03-01T09:15:14;3.40;99.90
680;DHT22;322;48.846;9.230;2023-03-01T09:17:42;3.60;99.90
680;DHT22;322;48.846;9.230;2023-03-01T09:20:10;3.80;99.90
680;DHT22;322;48.846;9.230;2023-03-01T09:22:37;3.70;99.90
680;DHT22;322;48.846;9.230;2023-03-01T09:25:04;3.60;99.90
680;DHT22;322;48.846;9.230;2023-03-01T09:27:31;3.60;99.90
680;DHT22;322;48.846;9.230;2023-03-01T09:29:58;3.50;99.90
680;DHT22;322;48.846;9.230;2023-03-01T09:32:25;3.60;99.90
680;DHT22;322;48.846;9.230;2023-03-01T09:34:53;3.80;99.90
680;DHT22;322;48.846;9.230;2023-03-01T09:37:31;4.10;99.90
680;DHT22;322;48.846;9.230;2023-03-01T09:39:58;4.30;99.90
680;DHT22;322;48.846;9.230;2023-03-01T09:42:25;4.40;99.90
680;DHT22;322;48.846;9.230;2023-03-01T09:44:57;4.30;99.90
680;DHT22;322;48.846;9.230;2023-03-01T09:47:29;4.40;99.90
680;DHT22;322;48.846;9.230;2023-03-01T09:50:03;4.70;99.90
680;DHT22;322;48.846;9.230;2023-03-01T09:52:38;5.00;99.90
680;DHT22;322;48.846;9.230;2023-03-01T09:55:10;4.90;99.90
680;DHT22;322;48.846;9.230;2023-03-01T09:57:43;5.20;99.90
680;DHT22;322;48.846;9.230;2023-03-01T10:00:19;5.20;99.90
680;DHT22;322;48.846;9.230;2023-03-01T10:02:51;5.40;99.90
680;DHT22;322;48.846;9.230;2023-03-01T10:08:26;5.30;99.90
680;DHT22;322;48.846;9.230;2023-03-01T10:10:55;5.40;99.90
680;DHT22;322;48.846;9.230;2023-03-01T10:13:25;5.70;99.90
680;DHT22;322;48.846;9.230;2023-03-01T10:15:56;6.10;99.90
680;DHT22;322;48.846;9.230;2023-03-01T10:18:26;6.60;99.90
680;DHT22;322;48.846;9.230;2023-03-01T10:20:57;6.90;99.90
680;DHT22;322;48.846;9.230;2023-03-01T10:23:25;7.20;99.90
680;DHT22;322;48.846;9.230;2023-03-01T10:26:07;7.10;99.90
680;DHT22;322;48.846;9.230;2023-03-01T10:28:44;7.60;99.90
680;DHT22;322;48.846;9.230;2023-03-01T10:31:15;8.00;99.10
680;DHT22;322;48.846;9.230;2023-03-01T10:33:42;8.30;99.20
680;DHT22;322;48.846;9.230;2023-03-01T10:36:10;9.00;97.90
680;DHT22;322;48.846;9.230;2023-03-01T10:38:48;9.20;96.60
680;DHT22;322;48.846;9.230;2023-03-01T10:41:18;9.80;95.90
680;DHT22;322;48.846;9.230;2023-03-01T10:43:47;10.30;92.80
680;DHT22;322;48.846;9.230;2023-03-01T10:46:25;9.90;94.50
680;DHT22;322;48.846;9.230;2023-03-01T10:49:14;10.40;93.70
680;DHT22;322;48.846;9.230;2023-03-01T10:51:48;11.00;92.90
680;DHT22;322;48.846;9.230;2023-03-01T10:54:20;11.50;90.90
680;DHT22;322;48.846;9.230;2023-03-01T10:56:54;11.20;90.60
680;DHT22;322;48.846;9.230;2023-03-01T10:59:28;11.20;91.40
680;DHT22;322;48.846;9.230;2023-03-01T11:02:04;11.60;90.80
680;DHT22;322;48.846;9.230;2023-03-01T11:04:33;11.70;89.90
680;DHT22;322;48.846;9.230;2023-03-01T11:07:05;11.80;89.80
680;DHT22;322;48.846;9.230;2023-03-01T11:09:33;12.30;89.30
680;DHT22;322;48.846;9.230;2023-03-01T11:12:16;12.00;86.20
680;DHT22;322;48.846;9.230;2023-03-01T11:14:47;12.20;88.30
680;DHT22;322;48.846;9.230;2023-03-01T11:17:18;12.30;85.10
680;DHT22;322;48.846;9.230;2023-03-01T11:20:06;12.30;86.30
680;DHT22;322;48.846;9.230;2023-03-01T11:23:01;12.90;85.50
680;DHT22;322;48.846;9.230;2023-03-01T11:25:34;13.40;84.60
680;DHT22;322;48.846;9.230;2023-03-01T11:28:04;13.60;82.60
680;DHT22;322;48.846;9.230;2023-03-01T11:30:34;13.40;81.00
680;DHT22;322;48.846;9.230;2023-03-01T11:33:10;13.80;83.10
680;DHT22;322;48.846;9.230;2023-03-01T11:35:42;13.50;80.30
680;DHT22;322;48.846;9.230;2023-03-01T11:38:19;13.80;81.70
680;DHT22;322;48.846;9.230;2023-03-01T11:40:52;13.70;81.40
680;DHT22;322;48.846;9.230;2023-03-01T11:43:26;13.40;81.40
680;DHT22;322;48.846;9.230;2023-03-01T11:46:21;13.90;81.10
680;DHT22;322;48.846;9.230;2023-03-01T11:48:58;14.20;78.50
680;DHT22;322;48.846;9.230;2023-03-01T11:51:40;14.60;78.90
680;DHT22;322;48.846;9.230;2023-03-01T11:54:28;15.20;76.10
680;DHT22;322;48.846;9.230;2023-03-01T11:57:02;15.70;75.90
680;DHT22;322;48.846;9.230;2023-03-01T12:00:02;16.20;75.00
680;DHT22;322;48.846;9.230;2023-03-01T12:03:01;16.10;72.40
680;DHT22;322;48.846;9.230;2023-03-01T12:08:51;16.90;70.20
680;DHT22;322;48.846;9.230;2023-03-01T12:11:34;16.60;68.60
680;DHT22;322;48.846;9.230;2023-03-01T12:14:16;16.00;68.40
680;DHT22;322;48.846;9.230;2023-03-01T12:17:08;16.20;70.30
680;DHT22;322;48.846;9.230;2023-03-01T12:19:51;16.60;69.20
680;DHT22;322;48.846;9.230;2023-03-01T12:22:30;14.70;68.20
680;DHT22;322;48.846;9.230;2023-03-01T12:25:28;14.30;73.40
680;DHT22;322;48.846;9.230;2023-03-01T12:28:29;15.30;71.40
680;DHT22;322;48.846;9.230;2023-03-01T12:34:03;15.70;70.00
680;DHT22;322;48.846;9.230;2023-03-01T12:36:47;13.50;69.10
680;DHT22;322;48.846;9.230;2023-03-01T12:39:28;12.40;74.40
680;DHT22;322;48.846;9.230;2023-03-01T12:42:04;11.40;76.60
680;DHT22;322;48.846;9.230;2023-03-01T12:44:57;10.80;78.50
680;DHT22;322;48.846;9.230;2023-03-01T12:50:25;12.10;81.40
680;DHT22;322;48.846;9.230;2023-03-01T12:52:56;13.70;77.10
680;DHT22;322;48.846;9.230;2023-03-01T12:55:28;14.30;74.20
680;DHT22;322;48.846;9.230;2023-03-01T12:58:03;13.80;72.40
680;DHT22;322;48.846;9.230;2023-03-01T13:00:38;12.10;75.10
680;DHT22;322;48.846;9.230;2023-03-01T13:03:18;10.90;82.20
680;DHT22;322;48.846;9.230;2023-03-01T13:05:56;10.30;83.90
680;DHT22;322;48.846;9.230;2023-03-01T13:08:31;9.70;86.30
680;DHT22;322;48.846;9.230;2023-03-01T13:11:00;9.00;87.70
680;DHT22;322;48.846;9.230;2023-03-01T13:13:28;8.90;90.20
680;DHT22;322;48.846;9.230;2023-03-01T13:15:56;9.10;90.20
680;DHT22;322;48.846;9.230;2023-03-01T13:18:32;9.30;90.50
680;DHT22;322;48.846;9.230;2023-03-01T13:21:01;9.20;89.70
680;DHT22;322;48.846;9.230;2023-03-01T13:23:34;9.00;90.70
680;DHT22;322;48.846;9.230;2023-03-01T13:26:17;8.90;90.80
680;DHT22;322;48.846;9.230;2023-03-01T13:28:54;8.90;90.70
680;DHT22;322;48.846;9.230;2023-03-01T13:34:45;8.70;91.20
680;DHT22;322;48.846;9.230;2023-03-01T13:37:23;8.70;91.50
680;DHT22;322;48.846;9.230;2023-03-01T13:39:51;8.80;91.30
680;DHT22;322;48.846;9.230;2023-03-01T13:42:43;8.80;91.50
680;DHT22;322;48.846;9.230;2023-03-01T13:45:19;8.80;92.20
680;DHT22;322;48.846;9.230;2023-03-01T13:47:47;8.90;91.40
680;DHT22;322;48.846;9.230;2023-03-01T13:50:21;8.80;91.20
680;DHT22;322;48.846;9.230;2023-03-01T13:52:55;8.60;91.50
680;DHT22;322;48.846;9.230;2023-03-01T13:55:29;8.60;92.30
680;DHT22;322;48.846;9.230;2023-03-01T13:57:59;8.60;92.10
680;DHT22;322;48.846;9.230;2023-03-01T14:00:32;8.40;92.10
680;DHT22;322;48.846;9.230;2023-03-01T14:03:01;8.40;92.90
680;DHT22;322;48.846;9.230;2023-03-01T14:05:38;8.40;92.30
680;DHT22;322;48.846;9.230;2023-03-01T14:08:19;8.20;92.60
680;DHT22;322;48.846;9.230;2023-03-01T14:11:00;8.40;93.10
680;DHT22;322;48.846;9.230;2023-03-01T14:13:39;8.50;93.20
680;DHT22;322;48.846;9.230;2023-03-01T14:16:28;8.30;92.70
680;DHT22;322;48.846;9.230;2023-03-01T14:19:09;8.20;93.00
680;DHT22;322;48.846;9.230;2023-03-01T14:21:40;8.20;93.10
680;DHT22;322;48.846;9.230;2023-03-01T14:24:16;8.20;94.00
680;DHT22;322;48.846;9.230;2023-03-01T14:26:43;8.20;93.20
680;DHT22;322;48.846;9.230;2023-03-01T14:29:24;8.20;93.10
680;DHT22;322;48.846;9.230;2023-03-01T14:31:51;8.20;93.30
680;DHT22;322;48.846;9.230;2023-03-01T14:34:20;8.20;93.00
680;DHT22;322;48.846;9.230;2023-03-01T14:36:49;8.30;93.80
680;DHT22;322;48.846;9.230;2023-03-01T14:39:17;8.30;93.20
680;DHT22;322;48.846;9.230;2023-03-01T14:41:44;8.30;93.30
680;DHT22;322;48.846;9.230;2023-03-01T14:44:16;8.40;93.90
680;DHT22;322;48.846;9.230;2023-03-01T14:46:46;8.50;93.60
680;DHT22;322;48.846;9.230;2023-03-01T14:49:15;8.60;93.10
680;DHT22;322;48.846;9.230;2023-03-01T14:51:51;8.40;93.20
680;DHT22;322;48.846;9.230;2023-03-01T14:54:24;8.40;93.60
680;DHT22;322;48.846;9.230;2023-03-01T14:56:53;8.40;93.10
680;DHT22;322;48.846;9.230;2023-03-01T14:59:22;8.30;93.20
680;DHT22;322;48.846;9.230;2023-03-01T15:01:50;8.20;93.50
680;DHT22;322;48.846;9.230;2023-03-01T15:04:18;8.20;93.40
680;DHT22;322;48.846;9.230;2023-03-01T15:06:47;8.10;93.40
680;DHT22;322;48.846;9.230;2023-03-01T15:09:15;8.10;93.80
680;DHT22;322;48.846;9.230;2023-03-01T15:11:44;8.20;94.20
680;DHT22;322;48.846;9.230;2023-03-01T15:14:40;8.20;93.70
680;DHT22;322;48.846;9.230;2023-03-01T15:17:21;8.20;94.30
680;DHT22;322;48.846;9.230;2023-03-01T15:19:49;8.20;93.70
680;DHT22;322;48.846;9.230;2023-03-01T15:22:16;8.20;93.50
680;DHT22;322;48.846;9.230;2023-03-01T15:24:47;8.20;93.40
680;DHT22;322;48.846;9.230;2023-03-01T15:27:17;8.20;93.70
680;DHT22;322;48.846;9.230;2023-03-01T15:29:48;8.30;93.90
680;DHT22;322;48.846;9.230;2023-03-01T15:32:27;8.50;93.00
680;DHT22;322;48.846;9.230;2023-03-01T15:34:54;8.30;93.20
680;DHT22;322;48.846;9.230;2023-03-01T15:37:40;8.20;93.10
680;DHT22;322;48.846;9.230;2023-03-01T15:40:23;8.20;93.40
680;DHT22;322;48.846;9.230;2023-03-01T15:42:58;8.10;93.30
680;DHT22;322;48.846;9.230;2023-03-01T15:45:27;8.10;93.90
680;DHT22;322;48.846;9.230;2023-03-01T15:47:55;8.20;94.00
680;DHT22;322;48.846;9.230;2023-03-01T15:50:25;8.30;93.50
680;DHT22;322;48.846;9.230;2023-03-01T15:52:53;8.20;93.40
680;DHT22;322;48.846;9.230;2023-03-01T15:55:21;8.20;93.40
680;DHT22;322;48.846;9.230;2023-03-01T15:57:49;8.10;93.30
680;DHT22;322;48.846;9.230;2023-03-01T16:00:18;8.20;93.50
680;DHT22;322;48.846;9.230;2023-03-01T16:02:45;8.10;93.40
680;DHT22;322;48.846;9.230;2023-03-01T16:05:19;8.00;93.60
680;DHT22;322;48.846;9.230;2023-03-01T16:07:46;7.90;93.80
680;DHT22;322;48.846;9.230;2023-03-01T16:10:13;7.90;93.80
680;DHT22;322;48.846;9.230;2023-03-01T16:12:40;7.90;94.10
680;DHT22;322;48.846;9.230;2023-03-01T16:15:15;7.80;93.90
680;DHT22;322;48.846;9.230;2023-03-01T16:17:45;7.80;94.10
680;DHT22;322;48.846;9.230;2023-03-01T16:20:12;7.80;94.30
680;DHT22;322;48.846;9.230;2023-03-01T16:22:41;7.70;93.90
680;DHT22;322;48.846;9.230;2023-03-01T16:25:09;7.60;94.20
680;DHT22;322;48.846;9.230;2023-03-01T16:27:36;7.60;94.20
680;DHT22;322;48.846;9.230;2023-03-01T16:30:03;7.50;94.40
680;DHT22;322;48.846;9.230;2023-03-01T16:32:30;7.50;94.40
680;DHT22;322;48.846;9.230;2023-03-01T16:34:58;7.40;94.90
680;DHT22;322;48.846;9.230;2023-03-01T16:37:25;7.30;95.20
680;DHT22;322;48.846;9.230;2023-03-01T16:39:52;7.20;95.60
680;DHT22;322;48.846;9.230;2023-03-01T16:42:19;7.10;95.80
680;DHT22;322;48.846;9.230;2023-03-01T16:44:46;7.00;95.90
680;DHT22;322;48.846;9.230;2023-03-01T16:47:12;6.90;96.00
680;DHT22;322;48.846;9.230;2023-03-01T16:49:39;6.90;96.20
680;DHT22;322;48.846;9.230;2023-03-01T16:52:07;6.80;96.30
680;DHT22;322;48.846;9.230;2023-03-01T16:54:34;6.70;96.40
680;DHT22;322;48.846;9.230;2023-03-01T16:57:01;6.60;96.70
680;DHT22;322;48.846;9.230;2023-03-01T16:59:27;6.60;97.00
680;DHT22;322;48.846;9.230;2023-03-01T17:01:54;6.50;97.10
680;DHT22;322;48.846;9.230;2023-03-01T17:04:21;6.40;97.30
680;DHT22;322;48.846;9.230;2023-03-01T17:06:48;6.30;97.60
680;DHT22;322;48.846;9.230;2023-03-01T17:09:16;6.20;97.80
680;DHT22;322;48.846;9.230;2023-03-01T17:11:43;6.10;98.10
680;DHT22;322;48.846;9.230;2023-03-01T17:14:10;6.10;98.60
680;DHT22;322;48.846;9.230;2023-03-01T17:16:37;6.00;98.40
680;DHT22;322;48.846;9.230;2023-03-01T17:19:03;5.90;98.50
680;DHT22;322;48.846;9.230;2023-03-01T17:21:30;5.80;98.70
680;DHT22;322;48.846;9.230;2023-03-01T17:23:57;5.70;98.70